sensor_id;sensor_type;location;lat;lon;timestamp;pressure;altitude;pressure_sealevel;temperature;humidity
35307;BME280;21420;52.196;21.416;2022-11-22T00:00:15;99323.11;;;0.39;69.79
35307;BME280;21420;52.196;21.416;2022-11-22T00:02:43;99323.16;;;0.37;69.74
35307;BME280;21420;52.196;21.416;2022-11-22T00:05:09;99332.82;;;0.38;69.83
35307;BME280;21420;52.196;21.416;2022-11-22T00:07:36;99321.52;;;0.38;69.79
35307;BME280;21420;52.196;21.416;2022-11-22T00:10:06;99330.68;;;0.37;69.83
35307;BME280;21420;52.196;21.416;2022-11-22T00:12:33;99324.50;;;0.37;69.81
35307;BME280;21420;52.196;21.416;2022-11-22T00:14:59;99329.38;;;0.35;69.77
35307;BME280;21420;52.196;21.416;2022-11-22T00:17:26;99322.92;;;0.33;69.82
35307;BME280;21420;52.196;21.416;2022-11-22T00:19:52;99328.03;;;0.35;69.86
35307;BME280;21420;52.196;21.416;2022-11-22T00:22:18;99323.75;;;0.34;69.92
35307;BME280;21420;52.196;21.416;2022-11-22T00:24:44;99323.16;;;0.37;70.02
35307;BME280;21420;52.196;21.416;2022-11-22T00:27:11;99327.98;;;0.37;69.96
35307;BME280;21420;52.196;21.416;2022-11-22T00:29:37;99331.79;;;0.36;69.91
35307;BME280;21420;52.196;21.416;2022-11-22T00:32:03;99329.61;;;0.36;69.93
35307;BME280;21420;52.196;21.416;2022-11-22T00:34:30;99327.48;;;0.35;69.95
35307;BME280;21420;52.196;21.416;2022-11-22T00:36:56;99322.64;;;0.35;69.92
35307;BME280;21420;52.196;21.416;2022-11-22T00:39:22;99327.80;;;0.31;69.89
35307;BME280;21420;52.196;21.416;2022-11-22T00:41:48;99328.91;;;0.30;69.92
35307;BME280;21420;52.196;21.416;2022-11-22T00:44:14;99329.61;;;0.36;70.12
35307;BME280;21420;52.196;21.416;2022-11-22T00:46:40;99333.38;;;0.37;70.06
35307;BME280;21420;52.196;21.416;2022-11-22T00:49:06;99344.70;;;0.37;70.01
35307;BME280;21420;52.196;21.416;2022-11-22T00:51:32;99335.60;;;0.33;69.97
35307;BME280;21420;52.196;21.416;2022-11-22T00:53:59;99336.16;;;0.32;69.99
35307;BME280;21420;52.196;21.416;2022-11-22T00:56:26;99333.70;;;0.33;70.07
35307;BME280;21420;52.196;21.416;2022-11-22T00:58:52;99334.17;;;0.38;70.21
35307;BME280;21420;52.196;21.416;2022-11-22T01:01:18;99339.73;;;0.44;70.28
35307;BME280;21420;52.196;21.416;2022-11-22T01:03:45;99340.75;;;0.48;70.29
35307;BME280;21420;52.196;21.416;2022-11-22T01:06:11;99345.39;;;0.45;70.07
35307;BME280;21420;52.196;21.416;2022-11-22T01:08:37;99344.06;;;0.43;70.07
35307;BME280;21420;52.196;21.416;2022-11-22T01:11:03;99342.98;;;0.44;70.19
35307;BME280;21420;52.196;21.416;2022-11-22T01:13:29;99342.14;;;0.46;70.21
35307;BME280;21420;52.196;21.416;2022-11-22T01:16:02;99350.73;;;0.48;70.17
35307;BME280;21420;52.196;21.416;2022-11-22T01:18:30;99347.02;;;0.44;70.11
35307;BME280;21420;52.196;21.416;2022-11-22T01:20:57;99343.73;;;0.47;70.24
35307;BME280;21420;52.196;21.416;2022-11-22T01:23:23;99340.24;;;0.46;70.18
35307;BME280;21420;52.196;21.416;2022-11-22T01:25:49;99342.94;;;0.46;70.19
35307;BME280;21420;52.196;21.416;2022-11-22T01:28:16;99338.06;;;0.48;70.32
35307;BME280;21420;52.196;21.416;2022-11-22T01:30:43;99336.43;;;0.50;70.32
35307;BME280;21420;52.196;21.416;2022-11-22T01:33:10;99328.30;;;0.52;70.37
35307;BME280;21420;52.196;21.416;2022-11-22T01:35:36;99326.69;;;0.51;70.32
35307;BME280;21420;52.196;21.416;2022-11-22T01:38:02;99322.95;;;0.50;70.28
35307;BME280;21420;52.196;21.416;2022-11-22T01:40:29;99320.79;;;0.49;70.31
35307;BME280;21420;52.196;21.416;2022-11-22T01:42:57;99322.95;;;0.50;70.23
35307;BME280;21420;52.196;21.416;2022-11-22T01:45:36;99325.67;;;0.47;70.29
35307;BME280;21420;52.196;21.416;2022-11-22T01:48:15;99320.00;;;0.49;70.35
35307;BME280;21420;52.196;21.416;2022-11-22T01:50:48;99321.67;;;0.45;70.26
35307;BME280;21420;52.196;21.416;2022-11-22T01:53:19;99326.78;;;0.46;70.33
35307;BME280;21420;52.196;21.416;2022-11-22T01:55:49;99326.27;;;0.44;70.32
35307;BME280;21420;52.196;21.416;2022-11-22T01:58:17;99319.06;;;0.39;70.26
35307;BME280;21420;52.196;21.416;2022-11-22T02:00:44;99316.42;;;0.37;70.22
35307;BME280;21420;52.196;21.416;2022-11-22T02:03:13;99317.22;;;0.37;70.37
35307;BME280;21420;52.196;21.416;2022-11-22T02:05:40;99318.01;;;0.38;70.38
35307;BME280;21420;52.196;21.416;2022-11-22T02:08:26;99320.97;;;0.39;70.41
35307;BME280;21420;52.196;21.416;2022-11-22T02:10:55;99318.56;;;0.37;70.35
35307;BME280;21420;52.196;21.416;2022-11-22T02:13:22;99323.20;;;0.34;70.33
35307;BME280;21420;52.196;21.416;2022-11-22T02:15:51;99327.23;;;0.34;70.35
35307;BME280;21420;52.196;21.416;2022-11-22T02:18:17;99324.27;;;0.33;70.38
35307;BME280;21420;52.196;21.416;2022-11-22T02:20:44;99324.78;;;0.35;70.43
35307;BME280;21420;52.196;21.416;2022-11-22T02:26:02;99334.77;;;0.35;70.45
35307;BME280;21420;52.196;21.416;2022-11-22T02:28:30;99339.40;;;0.32;70.36
35307;BME280;21420;52.196;21.416;2022-11-22T02:30:59;99335.09;;;0.31;70.38
35307;BME280;21420;52.196;21.416;2022-11-22T02:33:25;99334.54;;;0.31;70.45
35307;BME280;21420;52.196;21.416;2022-11-22T02:35:51;99331.00;;;0.33;70.44
35307;BME280;21420;52.196;21.416;2022-11-22T02:38:32;99335.09;;;0.31;70.40
35307;BME280;21420;52.196;21.416;2022-11-22T02:41:02;99338.05;;;0.32;70.44
35307;BME280;21420;52.196;21.416;2022-11-22T02:43:37;99341.78;;;0.33;70.45
35307;BME280;21420;52.196;21.416;2022-11-22T02:46:06;99339.92;;;0.31;70.40
35307;BME280;21420;52.196;21.416;2022-11-22T02:48:39;99350.73;;;0.29;70.40
35307;BME280;21420;52.196;21.416;2022-11-22T02:51:10;99351.53;;;0.29;70.45
35307;BME280;21420;52.196;21.416;2022-11-22T02:53:38;99352.59;;;0.31;70.50
35307;BME280;21420;52.196;21.416;2022-11-22T02:56:04;99351.72;;;0.35;70.62
35307;BME280;21420;52.196;21.416;2022-11-22T02:58:31;99355.52;;;0.34;70.49
35307;BME280;21420;52.196;21.416;2022-11-22T03:00:57;99355.52;;;0.34;70.52
35307;BME280;21420;52.196;21.416;2022-11-22T03:03:23;99359.80;;;0.35;70.57
35307;BME280;21420;52.196;21.416;2022-11-22T03:05:49;99359.47;;;0.39;70.58
35307;BME280;21420;52.196;21.416;2022-11-22T03:08:16;99351.90;;;0.41;70.62
35307;BME280;21420;52.196;21.416;2022-11-22T03:10:42;99347.81;;;0.44;70.59
35307;BME280;21420;52.196;21.416;2022-11-22T03:13:08;99352.08;;;0.48;70.66
35307;BME280;21420;52.196;21.416;2022-11-22T03:18:09;99352.55;;;0.52;70.73
35307;BME280;21420;52.196;21.416;2022-11-22T03:20:36;99358.08;;;0.58;70.77
35307;BME280;21420;52.196;21.416;2022-11-22T03:23:02;99350.22;;;0.62;70.83
35307;BME280;21420;52.196;21.416;2022-11-22T03:25:28;99355.80;;;0.68;70.86
35307;BME280;21420;52.196;21.416;2022-11-22T03:27:54;99358.53;;;0.66;70.69
35307;BME280;21420;52.196;21.416;2022-11-22T03:30:21;99360.63;;;0.69;70.75
35307;BME280;21420;52.196;21.416;2022-11-22T03:32:47;99351.70;;;0.71;70.84
35307;BME280;21420;52.196;21.416;2022-11-22T03:35:13;99355.70;;;0.73;70.79
35307;BME280;21420;52.196;21.416;2022-11-22T03:37:39;99354.45;;;0.68;70.61
35307;BME280;21420;52.196;21.416;2022-11-22T03:40:06;99358.53;;;0.66;70.58
35307;BME280;21420;52.196;21.416;2022-11-22T03:42:33;99363.09;;;0.65;70.62
35307;BME280;21420;52.196;21.416;2022-11-22T03:44:59;99364.20;;;0.64;70.60
35307;BME280;21420;52.196;21.416;2022-11-22T03:47:26;99362.91;;;0.61;70.50
35307;BME280;21420;52.196;21.416;2022-11-22T03:49:52;99360.30;;;0.56;70.43
35307;BME280;21420;52.196;21.416;2022-11-22T03:52:18;99354.91;;;0.56;70.57
35307;BME280;21420;52.196;21.416;2022-11-22T03:54:44;99365.05;;;0.62;70.72
35307;BME280;21420;52.196;21.416;2022-11-22T03:57:10;99361.24;;;0.63;70.64
35307;BME280;21420;52.196;21.416;2022-11-22T03:59:36;99361.52;;;0.64;70.69
35307;BME280;21420;52.196;21.416;2022-11-22T04:02:02;99362.06;;;0.64;70.62
35307;BME280;21420;52.196;21.416;2022-11-22T04:04:29;99359.56;;;0.67;70.76
35307;BME280;21420;52.196;21.416;2022-11-22T04:06:55;99361.92;;;0.71;70.81
35307;BME280;21420;52.196;21.416;2022-11-22T04:09:21;99358.11;;;0.75;70.86
35307;BME280;21420;52.196;21.416;2022-11-22T04:11:47;99349.69;;;0.79;70.91
35307;BME280;21420;52.196;21.416;2022-11-22T04:14:13;99347.00;;;0.79;70.85
35307;BME280;21420;52.196;21.416;2022-11-22T04:16:57;99343.98;;;0.80;70.89
35307;BME280;21420;52.196;21.416;2022-11-22T04:19:24;99347.47;;;0.81;70.92
35307;BME280;21420;52.196;21.416;2022-11-22T04:21:50;99346.44;;;0.79;70.91
35307;BME280;21420;52.196;21.416;2022-11-22T04:24:16;99354.53;;;0.79;70.83
35307;BME280;21420;52.196;21.416;2022-11-22T04:27:00;99352.39;;;0.79;70.83
35307;BME280;21420;52.196;21.416;2022-11-22T04:29:26;99355.60;;;0.78;70.82
35307;BME280;21420;52.196;21.416;2022-11-22T04:31:53;99352.39;;;0.79;70.80
35307;BME280;21420;52.196;21.416;2022-11-22T04:34:37;99352.39;;;0.79;70.80
35307;BME280;21420;52.196;21.416;2022-11-22T04:37:04;99357.80;;;0.76;70.80
35307;BME280;21420;52.196;21.416;2022-11-22T04:39:31;99355.88;;;0.79;70.80
35307;BME280;21420;52.196;21.416;2022-11-22T04:41:58;99360.71;;;0.80;70.82
35307;BME280;21420;52.196;21.416;2022-11-22T04:44:43;99358.39;;;0.73;70.59
35307;BME280;21420;52.196;21.416;2022-11-22T04:47:11;99359.23;;;0.71;70.69
35307;BME280;21420;52.196;21.416;2022-11-22T04:49:41;99359.50;;;0.72;70.76
35307;BME280;21420;52.196;21.416;2022-11-22T04:52:08;99368.25;;;0.64;70.57
35307;BME280;21420;52.196;21.416;2022-11-22T04:54:52;99364.53;;;0.60;70.56
35307;BME280;21420;52.196;21.416;2022-11-22T04:57:19;99360.25;;;0.59;70.62
35307;BME280;21420;52.196;21.416;2022-11-22T04:59:45;99358.91;;;0.59;70.65
35307;BME280;21420;52.196;21.416;2022-11-22T05:02:11;99354.91;;;0.56;70.64
35307;BME280;21420;52.196;21.416;2022-11-22T05:04:37;99348.38;;;0.60;70.73
35307;BME280;21420;52.196;21.416;2022-11-22T05:07:03;99351.29;;;0.64;70.83
35307;BME280;21420;52.196;21.416;2022-11-22T05:09:29;99341.59;;;0.62;70.77
35307;BME280;21420;52.196;21.416;2022-11-22T05:11:55;99341.34;;;0.61;70.76
35307;BME280;21420;52.196;21.416;2022-11-22T05:14:21;99339.69;;;0.63;70.77
35307;BME280;21420;52.196;21.416;2022-11-22T05:16:47;99333.77;;;0.64;70.85
35307;BME280;21420;52.196;21.416;2022-11-22T05:19:14;99338.34;;;0.63;70.81
35307;BME280;21420;52.196;21.416;2022-11-22T05:21:40;99330.25;;;0.63;70.79
35307;BME280;21420;52.196;21.416;2022-11-22T05:24:06;99340.51;;;0.64;70.84
35307;BME280;21420;52.196;21.416;2022-11-22T05:26:34;99341.39;;;0.59;70.73
35307;BME280;21420;52.196;21.416;2022-11-22T05:29:05;99342.14;;;0.62;70.87
35307;BME280;21420;52.196;21.416;2022-11-22T05:31:34;99346.42;;;0.63;70.82
35307;BME280;21420;52.196;21.416;2022-11-22T05:34:02;99349.43;;;0.61;70.79
35307;BME280;21420;52.196;21.416;2022-11-22T05:36:30;99346.33;;;0.52;70.66
35307;BME280;21420;52.196;21.416;2022-11-22T05:38:58;99355.77;;;0.52;70.66
35307;BME280;21420;52.196;21.416;2022-11-22T05:41:24;99363.89;;;0.49;70.69
35307;BME280;21420;52.196;21.416;2022-11-22T05:43:57;99368.20;;;0.50;70.74
35307;BME280;21420;52.196;21.416;2022-11-22T05:46:23;99365.00;;;0.48;70.69
35307;BME280;21420;52.196;21.416;2022-11-22T05:48:51;99363.70;;;0.46;70.71
35307;BME280;21420;52.196;21.416;2022-11-22T05:51:20;99363.14;;;0.46;70.78
35307;BME280;21420;52.196;21.416;2022-11-22T05:53:47;99361.55;;;0.45;70.82
35307;BME280;21420;52.196;21.416;2022-11-22T05:56:17;99366.59;;;0.49;70.87
35307;BME280;21420;52.196;21.416;2022-11-22T05:58:45;99376.33;;;0.48;70.86
35307;BME280;21420;52.196;21.416;2022-11-22T06:01:14;99380.33;;;0.50;70.98
35307;BME280;21420;52.196;21.416;2022-11-22T06:03:42;99390.03;;;0.49;70.83
35307;BME280;21420;52.196;21.416;2022-11-22T06:06:10;99402.20;;;0.46;70.81
35307;BME280;21420;52.196;21.416;2022-11-22T06:08:38;99398.91;;;0.49;70.92
35307;BME280;21420;52.196;21.416;2022-11-22T06:11:25;99402.95;;;0.49;70.90
35307;BME280;21420;52.196;21.416;2022-11-22T06:14:00;99409.13;;;0.52;70.92
35307;BME280;21420;52.196;21.416;2022-11-22T06:16:29;99413.73;;;0.49;70.84
35307;BME280;21420;52.196;21.416;2022-11-22T06:18:56;99409.69;;;0.49;70.88
35307;BME280;21420;52.196;21.416;2022-11-22T06:21:24;99411.55;;;0.51;70.96
35307;BME280;21420;52.196;21.416;2022-11-22T06:23:52;99413.16;;;0.52;70.94
35307;BME280;21420;52.196;21.416;2022-11-22T06:26:19;99411.27;;;0.53;70.95
35307;BME280;21420;52.196;21.416;2022-11-22T06:28:48;99412.02;;;0.56;71.02
35307;BME280;21420;52.196;21.416;2022-11-22T06:31:19;99411.48;;;0.56;70.98
35307;BME280;21420;52.196;21.416;2022-11-22T06:33:46;99417.67;;;0.57;70.99
35307;BME280;21420;52.196;21.416;2022-11-22T06:36:15;99408.75;;;0.59;70.99
35307;BME280;21420;52.196;21.416;2022-11-22T06:38:44;99417.36;;;0.58;70.96
35307;BME280;21420;52.196;21.416;2022-11-22T06:41:13;99420.92;;;0.56;70.89
35307;BME280;21420;52.196;21.416;2022-11-22T06:43:41;99423.06;;;0.57;70.99
35307;BME280;21420;52.196;21.416;2022-11-22T06:46:09;99424.65;;;0.58;71.00
35307;BME280;21420;52.196;21.416;2022-11-22T06:48:37;99426.73;;;0.64;71.22
35307;BME280;21420;52.196;21.416;2022-11-22T06:51:07;99428.04;;;0.66;71.16
35307;BME280;21420;52.196;21.416;2022-11-22T06:53:35;99441.24;;;0.65;71.01
35307;BME280;21420;52.196;21.416;2022-11-22T06:56:05;99443.19;;;0.62;70.99
35307;BME280;21420;52.196;21.416;2022-11-22T06:58:33;99442.08;;;0.63;71.01
35307;BME280;21420;52.196;21.416;2022-11-22T07:01:04;99449.41;;;0.60;70.96
35307;BME280;21420;52.196;21.416;2022-11-22T07:03:37;99455.06;;;0.61;71.03
35307;BME280;21420;52.196;21.416;2022-11-22T07:06:06;99457.77;;;0.61;71.04
35307;BME280;21420;52.196;21.416;2022-11-22T07:08:33;99455.34;;;0.59;70.97
35307;BME280;21420;52.196;21.416;2022-11-22T07:11:05;99457.53;;;0.57;70.97
35307;BME280;21420;52.196;21.416;2022-11-22T07:13:34;99457.29;;;0.56;71.00
35307;BME280;21420;52.196;21.416;2022-11-22T07:16:01;99463.43;;;0.59;71.08
35307;BME280;21420;52.196;21.416;2022-11-22T07:18:29;99468.23;;;0.62;71.08
35307;BME280;21420;52.196;21.416;2022-11-22T07:21:02;99465.53;;;0.62;71.05
35307;BME280;21420;52.196;21.416;2022-11-22T07:23:29;99463.39;;;0.62;71.08
35307;BME280;21420;52.196;21.416;2022-11-22T07:25:56;99456.53;;;0.70;71.25
35307;BME280;21420;52.196;21.416;2022-11-22T07:28:23;99453.47;;;0.76;71.35
35307;BME280;21420;52.196;21.416;2022-11-22T07:30:50;99459.13;;;0.77;71.27
35307;BME280;21420;52.196;21.416;2022-11-22T07:33:16;99456.61;;;0.83;71.40
35307;BME280;21420;52.196;21.416;2022-11-22T07:35:43;99456.02;;;0.87;71.36
35307;BME280;21420;52.196;21.416;2022-11-22T07:38:09;99452.20;;;0.90;71.40
35307;BME280;21420;52.196;21.416;2022-11-22T07:40:36;99450.48;;;0.97;71.47
35307;BME280;21420;52.196;21.416;2022-11-22T07:43:02;99454.44;;;1.02;71.50
35307;BME280;21420;52.196;21.416;2022-11-22T07:45:29;99450.94;;;1.01;71.43
35307;BME280;21420;52.196;21.416;2022-11-22T07:47:59;99461.13;;;1.04;71.49
35307;BME280;21420;52.196;21.416;2022-11-22T07:50:26;99464.33;;;1.07;71.44
35307;BME280;21420;52.196;21.416;2022-11-22T07:52:59;99467.22;;;1.10;71.45
35307;BME280;21420;52.196;21.416;2022-11-22T07:55:22;99472.93;;;1.09;71.37
35307;BME280;21420;52.196;21.416;2022-11-22T07:57:50;99476.88;;;1.14;71.47
35307;BME280;21420;52.196;21.416;2022-11-22T08:00:17;99483.38;;;1.13;71.33
35307;BME280;21420;52.196;21.416;2022-11-22T08:02:44;99482.92;;;1.08;71.21
35307;BME280;21420;52.196;21.416;2022-11-22T08:05:11;99484.28;;;1.06;71.27
35307;BME280;21420;52.196;21.416;2022-11-22T08:07:37;99486.09;;;1.10;71.41
35307;BME280;21420;52.196;21.416;2022-11-22T08:10:04;99476.55;;;1.18;71.59
35307;BME280;21420;52.196;21.416;2022-11-22T08:12:31;99467.57;;;1.22;71.61
35307;BME280;21420;52.196;21.416;2022-11-22T08:14:57;99465.58;;;1.28;71.64
35307;BME280;21420;52.196;21.416;2022-11-22T08:17:23;99458.30;;;1.29;71.51
35307;BME280;21420;52.196;21.416;2022-11-22T08:19:49;99457.94;;;1.33;71.57
35307;BME280;21420;52.196;21.416;2022-11-22T08:22:17;99456.12;;;1.31;71.36
35307;BME280;21420;52.196;21.416;2022-11-22T08:24:43;99448.64;;;1.25;71.29
35307;BME280;21420;52.196;21.416;2022-11-22T08:27:10;99452.13;;;1.25;71.31
35307;BME280;21420;52.196;21.416;2022-11-22T08:29:36;99459.10;;;1.29;71.48
35307;BME280;21420;52.196;21.416;2022-11-22T08:32:03;99466.47;;;1.40;71.69
35307;BME280;21420;52.196;21.416;2022-11-22T08:34:29;99468.73;;;1.33;71.30
35307;BME280;21420;52.196;21.416;2022-11-22T08:36:56;99475.23;;;1.32;71.36
35307;BME280;21420;52.196;21.416;2022-11-22T08:39:22;99472.48;;;1.34;71.38
35307;BME280;21420;52.196;21.416;2022-11-22T08:41:48;99468.11;;;1.38;71.47
35307;BME280;21420;52.196;21.416;2022-11-22T08:44:15;99472.76;;;1.35;71.35
35307;BME280;21420;52.196;21.416;2022-11-22T08:46:41;99485.88;;;1.39;71.45
35307;BME280;21420;52.196;21.416;2022-11-22T08:49:10;99489.69;;;1.38;71.43
35307;BME280;21420;52.196;21.416;2022-11-22T08:51:36;99489.64;;;1.41;71.44
35307;BME280;21420;52.196;21.416;2022-11-22T08:54:02;99484.97;;;1.47;71.55
35307;BME280;21420;52.196;21.416;2022-11-22T08:56:29;99479.14;;;1.39;71.23
35307;BME280;21420;52.196;21.416;2022-11-22T08:58:55;99477.50;;;1.41;71.48
35307;BME280;21420;52.196;21.416;2022-11-22T09:01:21;99482.66;;;1.40;71.39
35307;BME280;21420;52.196;21.416;2022-11-22T09:03:48;99475.87;;;1.42;71.55
35307;BME280;21420;52.196;21.416;2022-11-22T09:06:17;99481.67;;;1.50;71.61
35307;BME280;21420;52.196;21.416;2022-11-22T09:08:43;99483.36;;;1.45;71.42
35307;BME280;21420;52.196;21.416;2022-11-22T09:11:15;99483.06;;;1.47;71.55
35307;BME280;21420;52.196;21.416;2022-11-22T09:13:45;99489.02;;;1.47;71.45
35307;BME280;21420;52.196;21.416;2022-11-22T09:16:20;99490.39;;;1.44;71.38
35307;BME280;21420;52.196;21.416;2022-11-22T09:18:45;99492.24;;;1.46;71.52
35307;BME280;21420;52.196;21.416;2022-11-22T09:21:14;99496.73;;;1.53;71.68
35307;BME280;21420;52.196;21.416;2022-11-22T09:23:46;99490.84;;;1.65;71.78
35307;BME280;21420;52.196;21.416;2022-11-22T09:26:16;99487.03;;;1.66;71.69
35307;BME280;21420;52.196;21.416;2022-11-22T09:28:44;99474.26;;;1.72;71.74
35307;BME280;21420;52.196;21.416;2022-11-22T09:31:16;99480.91;;;1.77;71.76
35307;BME280;21420;52.196;21.416;2022-11-22T09:33:43;99473.36;;;1.76;71.74
35307;BME280;21420;52.196;21.416;2022-11-22T09:36:15;99483.00;;;1.80;71.77
35307;BME280;21420;52.196;21.416;2022-11-22T09:38:43;99481.70;;;1.77;71.67
35307;BME280;21420;52.196;21.416;2022-11-22T09:47:31;99494.64;;;1.78;71.73
35307;BME280;21420;52.196;21.416;2022-11-22T09:53:22;99493.95;;;1.86;71.84
35307;BME280;21420;52.196;21.416;2022-11-22T09:56:10;99490.46;;;1.99;72.02
35307;BME280;21420;52.196;21.416;2022-11-22T09:58:43;99487.60;;;2.07;72.01
35307;BME280;21420;52.196;21.416;2022-11-22T10:01:16;99489.51;;;2.06;71.88
35307;BME280;21420;52.196;21.416;2022-11-22T10:03:51;99494.45;;;2.16;72.04
35307;BME280;21420;52.196;21.416;2022-11-22T10:06:36;99498.66;;;2.22;71.93
35307;BME280;21420;52.196;21.416;2022-11-22T10:09:17;99493.81;;;2.21;71.83
35307;BME280;21420;52.196;21.416;2022-11-22T10:15:14;99484.47;;;2.16;71.72
35307;BME280;21420;52.196;21.416;2022-11-22T10:21:02;99496.25;;;2.20;71.51
35307;BME280;21420;52.196;21.416;2022-11-22T10:23:29;99490.31;;;2.21;71.61
35307;BME280;21420;52.196;21.416;2022-11-22T10:25:59;99485.86;;;2.27;71.81
35307;BME280;21420;52.196;21.416;2022-11-22T10:37:29;99467.33;;;2.35;71.84
35307;BME280;21420;52.196;21.416;2022-11-22T10:45:39;99458.72;;;2.58;71.84
35307;BME280;21420;52.196;21.416;2022-11-22T10:59:15;99491.59;;;2.37;71.41
35307;BME280;21420;52.196;21.416;2022-11-22T11:05:03;99498.36;;;2.23;71.33
35307;BME280;21420;52.196;21.416;2022-11-22T11:07:32;99515.60;;;2.25;71.46
35307;BME280;21420;52.196;21.416;2022-11-22T11:10:04;99517.45;;;2.27;71.56
35307;BME280;21420;52.196;21.416;2022-11-22T11:12:54;99515.60;;;2.25;71.49
35307;BME280;21420;52.196;21.416;2022-11-22T11:15:26;99521.27;;;2.26;71.51
35307;BME280;21420;52.196;21.416;2022-11-22T11:18:16;99529.88;;;2.28;71.57
35307;BME280;21420;52.196;21.416;2022-11-22T11:20:50;99525.50;;;2.29;71.59
35307;BME280;21420;52.196;21.416;2022-11-22T11:23:19;99529.53;;;2.32;71.60
35307;BME280;21420;52.196;21.416;2022-11-22T11:25:47;99536.97;;;2.38;71.78
35307;BME280;21420;52.196;21.416;2022-11-22T11:28:27;99533.22;;;2.50;71.83
35307;BME280;21420;52.196;21.416;2022-11-22T11:31:07;99545.50;;;2.56;71.82
35307;BME280;21420;52.196;21.416;2022-11-22T11:33:40;99544.30;;;2.62;71.85
35307;BME280;21420;52.196;21.416;2022-11-22T11:36:15;99527.02;;;2.61;71.64
35307;BME280;21420;52.196;21.416;2022-11-22T11:41:19;99515.27;;;2.54;71.45
35307;BME280;21420;52.196;21.416;2022-11-22T11:43:49;99514.74;;;2.55;71.62
35307;BME280;21420;52.196;21.416;2022-11-22T11:46:20;99519.35;;;2.65;71.82
35307;BME280;21420;52.196;21.416;2022-11-22T11:48:54;99520.34;;;2.69;71.76
35307;BME280;21420;52.196;21.416;2022-11-22T11:54:04;99507.09;;;2.70;71.69
35307;BME280;21420;52.196;21.416;2022-11-22T11:56:48;99507.64;;;2.81;71.96
35307;BME280;21420;52.196;21.416;2022-11-22T11:59:27;99495.73;;;2.82;71.86
35307;BME280;21420;52.196;21.416;2022-11-22T12:02:14;99499.06;;;2.79;71.75
35307;BME280;21420;52.196;21.416;2022-11-22T12:04:53;99507.21;;;2.77;71.72
35307;BME280;21420;52.196;21.416;2022-11-22T12:13:28;99496.14;;;2.64;71.74
35307;BME280;21420;52.196;21.416;2022-11-22T12:16:08;99492.58;;;2.66;71.63
35307;BME280;21420;52.196;21.416;2022-11-22T12:22:24;99482.48;;;2.58;71.54
35307;BME280;21420;52.196;21.416;2022-11-22T12:24:58;99479.78;;;2.58;71.67
35307;BME280;21420;52.196;21.416;2022-11-22T12:27:30;99482.78;;;2.57;71.68
35307;BME280;21420;52.196;21.416;2022-11-22T12:29:57;99486.95;;;2.52;71.54
35307;BME280;21420;52.196;21.416;2022-11-22T12:32:35;99479.11;;;2.53;71.64
35307;BME280;21420;52.196;21.416;2022-11-22T12:35:08;99476.14;;;2.52;71.61
35307;BME280;21420;52.196;21.416;2022-11-22T12:40:25;99489.42;;;2.50;71.69
35307;BME280;21420;52.196;21.416;2022-11-22T12:43:04;99497.27;;;2.49;71.76
35307;BME280;21420;52.196;21.416;2022-11-22T12:45:41;99497.53;;;2.50;71.72
35307;BME280;21420;52.196;21.416;2022-11-22T12:48:19;99499.47;;;2.47;71.62
35307;BME280;21420;52.196;21.416;2022-11-22T12:50:55;99497.14;;;2.43;71.60
35307;BME280;21420;52.196;21.416;2022-11-22T12:53:31;99500.81;;;2.47;71.64
35307;BME280;21420;52.196;21.416;2022-11-22T12:56:46;99491.73;;;2.43;71.55
35307;BME280;21420;52.196;21.416;2022-11-22T13:01:47;99491.97;;;2.44;71.70
35307;BME280;21420;52.196;21.416;2022-11-22T13:04:34;99488.54;;;2.41;71.68
35307;BME280;21420;52.196;21.416;2022-11-22T13:10:06;99482.42;;;2.36;71.62
35307;BME280;21420;52.196;21.416;2022-11-22T13:12:36;99485.98;;;2.34;71.60
35307;BME280;21420;52.196;21.416;2022-11-22T13:15:04;99486.77;;;2.34;71.64
35307;BME280;21420;52.196;21.416;2022-11-22T13:17:35;99487.09;;;2.33;71.55
35307;BME280;21420;52.196;21.416;2022-11-22T13:20:14;99488.30;;;2.26;71.45
35307;BME280;21420;52.196;21.416;2022-11-22T13:25:34;99495.67;;;2.10;71.31
35307;BME280;21420;52.196;21.416;2022-11-22T13:28:09;99486.30;;;2.04;71.34
35307;BME280;21420;52.196;21.416;2022-11-22T13:30:38;99484.72;;;2.03;71.36
35307;BME280;21420;52.196;21.416;2022-11-22T13:33:09;99488.00;;;2.00;71.34
35307;BME280;21420;52.196;21.416;2022-11-22T13:35:36;99476.30;;;1.91;71.17
35307;BME280;21420;52.196;21.416;2022-11-22T13:38:05;99471.17;;;1.92;71.40
35307;BME280;21420;52.196;21.416;2022-11-22T13:40:44;99470.27;;;1.97;71.57
35307;BME280;21420;52.196;21.416;2022-11-22T13:45:58;99464.25;;;2.00;71.51
35307;BME280;21420;52.196;21.416;2022-11-22T13:51:14;99457.50;;;2.00;71.51
35307;BME280;21420;52.196;21.416;2022-11-22T13:53:45;99469.36;;;2.01;71.51
35307;BME280;21420;52.196;21.416;2022-11-22T13:59:12;99475.95;;;1.95;71.43
35307;BME280;21420;52.196;21.416;2022-11-22T14:21:06;99491.70;;;1.77;71.54
35307;BME280;21420;52.196;21.416;2022-11-22T14:23:39;99493.00;;;1.79;71.59
35307;BME280;21420;52.196;21.416;2022-11-22T14:26:36;99492.20;;;1.79;71.56
35307;BME280;21420;52.196;21.416;2022-11-22T14:29:22;99490.59;;;1.78;71.55
35307;BME280;21420;52.196;21.416;2022-11-22T14:31:59;99491.54;;;1.71;71.35
35307;BME280;21420;52.196;21.416;2022-11-22T14:34:29;99499.79;;;1.63;71.23
35307;BME280;21420;52.196;21.416;2022-11-22T14:45:20;99509.06;;;1.57;71.31
35307;BME280;21420;52.196;21.416;2022-11-22T14:48:00;99502.70;;;1.50;71.22
35307;BME280;21420;52.196;21.416;2022-11-22T14:56:16;99503.88;;;1.60;71.56
35307;BME280;21420;52.196;21.416;2022-11-22T14:58:37;99497.94;;;1.61;71.52
35307;BME280;21420;52.196;21.416;2022-11-22T15:16:20;99500.40;;;1.27;71.03
35307;BME280;21420;52.196;21.416;2022-11-22T15:18:49;99501.02;;;1.21;71.25
35307;BME280;21420;52.196;21.416;2022-11-22T15:21:28;99504.22;;;1.23;71.39
35307;BME280;21420;52.196;21.416;2022-11-22T15:23:57;99512.82;;;1.25;71.55
35307;BME280;21420;52.196;21.416;2022-11-22T15:26:27;99516.03;;;1.28;71.48